Persevere — WDB7698 — position and weather

sailwx.info

Track history (hours):
 
Tides and Currents Weather Stations Pressure Air Temp Water Temp Dewpoint Dewpoint Depression Visibility Wind Speed Wind Dir Waves Ship Positions

Persevere

Owner: o'leary, charles p, hopkinton, MA. More information available from US FCC via Universal Licensing System and Coast Guard Vessel Documentation Center.

Last reported at 2018-Mar-29 22:45 UTC. Time now 2018-Apr-24 14:33 UTC.
Position N 34°15' W 119°16'.
Warning: this ship's position is 25 days out of date.

Length 12 m.

Type: Pleasure craft. MMSI: 366946540.

Date/timePositionNaut miles runAvg speedWind from/ knotsBaromVisibWave heightAir tempDewpointWater temp
2018-Mar-29 22:45N 34°15' W 119°16'0 1.5
2018-Mar-29 22:28N 34°15' W 119°16'714.9
2018-Mar-29 22:00N 34°13' W 119°24'1 2.8
2018-Mar-29 21:30N 34°13' W 119°23'4 8.4
2018-Mar-29 21:00N 34°14' W 119°18'2 3.2
2018-Mar-29 20:30N 34°15' W 119°16'0 0.0
2018-Mar-28 20:52N 34°15' W 119°16'1 1.6
2018-Mar-28 20:29N 34°15' W 119°16'815.7
2018-Mar-28 19:59N 34°12' W 119°25'3 6.5
2018-Mar-28 19:29N 34°11' W 119°29'610.2
2018-Mar-28 18:53N 34°13' W 119°22'512.2
2018-Mar-28 18:30N 34°14' W 119°17'  
Track history (hours):
 
Tides and Currents Weather Stations Pressure Air Temp Water Temp Dewpoint Dewpoint Depression Visibility Wind Speed Wind Dir Waves Ship Positions

Persevere

Owner: o'leary, charles p, hopkinton, MA. More information available from US FCC via Universal Licensing System and Coast Guard Vessel Documentation Center.

Last reported at 2018-Mar-29 22:45 UTC. Time now 2018-Apr-24 14:33 UTC.
Position N 34°15' W 119°16'.
Warning: this ship's position is 25 days out of date.

Length 12 m.

Type: Pleasure craft. MMSI: 366946540.

Date/timePositionNaut miles runAvg speedWind from/ knotsBaromVisibWave heightAir tempDewpointWater temp
2018-Mar-29 22:45N 34°15' W 119°16'0 1.5
2018-Mar-29 22:28N 34°15' W 119°16'714.9
2018-Mar-29 22:00N 34°13' W 119°24'1 2.8
2018-Mar-29 21:30N 34°13' W 119°23'4 8.4
2018-Mar-29 21:00N 34°14' W 119°18'2 3.2
2018-Mar-29 20:30N 34°15' W 119°16'0 0.0
2018-Mar-28 20:52N 34°15' W 119°16'1 1.6
2018-Mar-28 20:29N 34°15' W 119°16'815.7
2018-Mar-28 19:59N 34°12' W 119°25'3 6.5
2018-Mar-28 19:29N 34°11' W 119°29'610.2
2018-Mar-28 18:53N 34°13' W 119°22'512.2
2018-Mar-28 18:30N 34°14' W 119°17'  

Dump ship's entire track history